Lester Prairie, MN

2:11 PM CDT on September 20, 2014 (GMT -0500)
Winsted Township | Change Station
CLOSE
Current Station
Personal Weather Station
Location: Winsted, MN
Elevation: 1027 ft
Nearby Weather Stations
Active Advisory: Severe Thunderstorm Watch

Elev 1027 ft 44.96 °N, 94.07 °W | Updated 8 minutes ago

Clear
Clear
75.2 °F
Feels Like 78 °F
N
4.2
Wind Variable Wind from SW

Today
High -- | Low -- °F
--% Chance of Precip.
Yesterday
High -- | Low -- °F
Precip. -- in
7:00 AM 7:17 PM
Waning Crescent, 11% visible
Pressure 29.80 in
Visibility 10.0 miles
Clouds Clear
Heat Index 78 °F
Dew Point 56 °F
Humidity 51%
Rainfall 0.00 in
Snow Depth Not available.
UV 6 out of 12
Pollen 3.10 out of 12
Ozone Good
PM2.5 Moderate
Flu Activity Not available.
METAR KGYL 201854Z AUTO 28010G14KT 10SM CLR 24/12 A2980 RMK AO2 T02420117

More Conditions Fewer Conditions

Pressure 29.80 in
Visibility 10.0 miles
Clouds Clear
Heat Index 78 °F
Dew Point 56 °F
Humidity 51%
Rainfall 0.00 in
Snow Depth Not available.
UV 6 out of 12
Pollen 3.10 out of 12
Ozone Good
PM2.5 Moderate
Flu Activity Not available.
METAR KGYL 201854Z AUTO 28010G14KT 10SM CLR 24/12 A2980 RMK AO2 T02420117

More Conditions Fewer Conditions

10-Day Weather Forecast

Almanac

Astronomy

Sep. 20, 2014 Rise Set
Actual Time 7:00 AM CDT 7:17 PM CDT
Civil Twilight 6:31 AM CDT 7:46 PM CDT
Nautical Twilight 5:57 AM CDT 8:21 PM CDT
Astronomical Twilight 5:21 AM CDT 8:56 PM CDT
Moon 3:33 AM CDT 5:27 PM CDT
Length of Visible Light 13h 15m
Length of Day
12h 16m
Tomorrow will be 3m 6s shorter.
Waning Crescent, 11% of the Moon is Illuminated
Today
Waning Crescent
Sep 24
New
Oct 1
First Quarter
Oct 8
Full
Oct 15
Last Quarter

Today's Extremes

State Highs State Lows

Community

WunderPhotos

Upload Photos

1,754,921 photos uploaded!

WunderBlogs® & News

Nearby

Air Quality

  Air Quality AQ Index Pollutant
Yesterday Good
PM2.5
Yesterday Good
OZONE
Current Moderate
PM2.5
Current Good
OZONE
Saturday Good
PM2.5
Saturday Good
OZONE
Sunday Good
OZONE
Sunday Good
PM2.5
Monday Good
OZONE
Monday Good
PM2.5
Tuesday Good
OZONE
Tuesday Good
PM2.5
Wednesday Moderate
PM2.5
Wednesday Good
OZONE
Thursday Moderate
PM2.5
Thursday Good
OZONE

Snow Depth

Station Depth Elevation
No new snow has been reported.

Earthquake Activity

City Distance Mag. Time & Date
No recent earthquake activity has been reported nearby.
Minimum magnitude displayed is 2.5.

Coastal Water Temperatures

Place Temperature
No Stations Reporting

Nearby Weather Stations